Other Surface Observations
Issued by NWS Great Falls, MT

Home | Current Version | Previous Version | Text Only | Print | Product List | Glossary On
Versions: 1 2 3 4 5 6 7 8 9 10 11 12 13 14 15 16 17 18 19 20 21 22 23 24 25 26 27 28 29 30 31 32 33 34 35 36 37 38 39 40 41 42 43 44 45 46 47 48 49 50
943
SXUS55 KTFX 301929
OSOTFX
AREA AWOS OBSERVATIONS
NATIONAL WEATHER SERVICE GREAT FALLS MT
0129 PM MDT MON MAY 30 2016

METAR KPO1 301930Z AUTO 30004KT 4SM 14/12 A2995 RMK POPLAR
METAR K1S3 301930Z AUTO 32022G29KT 10SM 15/10 A2994 RMK FORSYTH
METAR KS71 301930Z AUTO 25015G22KT 5SM 09/07 A3005 RMK CHINOOK
METAR K38S 301930Z AUTO 33016G22KT 10SM 15/M01 A3014 RMK DEER LODGE
METAR K3U3 301930Z AUTO 30010G19KT 10SM 16/M07 A3013 RMK ANACONDA
METAR K6S5 301930Z AUTO 11007KT 10SM 17/M02 A3016 RMK HAMILTON
METAR KS59 301930Z AUTO 35006KT 10SM 17/02 A3017 RMK LIBBY
METAR K88M 301930Z AUTO 30006KT 10SM 15/03 A3019 RMK EUREKA



USA.gov is the U.S. government's official web portal to all federal, state and local government web resources and services.